sensor_id;sensor_type;location;lat;lon;timestamp;temperature;humidity
8105;DHT22;4095;48.942;9.104;2022-11-20T00:01:15;7.20;99.90
8105;DHT22;4095;48.942;9.104;2022-11-20T00:03:41;7.20;99.90
8105;DHT22;4095;48.942;9.104;2022-11-20T00:06:10;7.20;99.90
8105;DHT22;4095;48.942;9.104;2022-11-20T00:08:36;7.20;99.90
8105;DHT22;4095;48.942;9.104;2022-11-20T00:11:07;7.20;99.90
8105;DHT22;4095;48.942;9.104;2022-11-20T00:13:34;7.20;99.90
8105;DHT22;4095;48.942;9.104;2022-11-20T00:16:01;7.20;99.90
8105;DHT22;4095;48.942;9.104;2022-11-20T00:18:28;7.20;99.90
8105;DHT22;4095;48.942;9.104;2022-11-20T00:21:03;7.20;99.90
8105;DHT22;4095;48.942;9.104;2022-11-20T00:23:30;7.30;99.90
8105;DHT22;4095;48.942;9.104;2022-11-20T00:25:55;7.30;99.90
8105;DHT22;4095;48.942;9.104;2022-11-20T00:28:21;7.30;99.90
8105;DHT22;4095;48.942;9.104;2022-11-20T00:30:47;7.30;99.90
8105;DHT22;4095;48.942;9.104;2022-11-20T00:33:12;7.30;99.90
8105;DHT22;4095;48.942;9.104;2022-11-20T00:35:38;7.30;99.90
8105;DHT22;4095;48.942;9.104;2022-11-20T00:38:03;7.40;99.90
8105;DHT22;4095;48.942;9.104;2022-11-20T00:40:29;7.40;99.90
8105;DHT22;4095;48.942;9.104;2022-11-20T00:42:55;7.40;99.90
8105;DHT22;4095;48.942;9.104;2022-11-20T00:45:20;7.30;99.90
8105;DHT22;4095;48.942;9.104;2022-11-20T00:47:46;7.30;99.90
8105;DHT22;4095;48.942;9.104;2022-11-20T00:50:11;7.40;99.90
8105;DHT22;4095;48.942;9.104;2022-11-20T00:52:37;7.40;99.90
8105;DHT22;4095;48.942;9.104;2022-11-20T00:55:03;7.40;99.90
8105;DHT22;4095;48.942;9.104;2022-11-20T00:57:29;7.40;99.90
8105;DHT22;4095;48.942;9.104;2022-11-20T00:59:55;7.40;99.90
8105;DHT22;4095;48.942;9.104;2022-11-20T01:02:20;7.40;99.90
8105;DHT22;4095;48.942;9.104;2022-11-20T01:04:46;7.50;99.90
8105;DHT22;4095;48.942;9.104;2022-11-20T01:07:12;7.50;99.90
8105;DHT22;4095;48.942;9.104;2022-11-20T01:09:37;7.40;99.90
8105;DHT22;4095;48.942;9.104;2022-11-20T01:12:03;7.40;99.90
8105;DHT22;4095;48.942;9.104;2022-11-20T01:14:29;7.50;99.90
8105;DHT22;4095;48.942;9.104;2022-11-20T01:16:54;7.50;99.90
8105;DHT22;4095;48.942;9.104;2022-11-20T01:19:22;7.50;99.90
8105;DHT22;4095;48.942;9.104;2022-11-20T01:21:50;7.50;99.90
8105;DHT22;4095;48.942;9.104;2022-11-20T01:24:17;7.40;99.90
8105;DHT22;4095;48.942;9.104;2022-11-20T01:26:46;7.40;99.90
8105;DHT22;4095;48.942;9.104;2022-11-20T01:29:19;7.50;99.90
8105;DHT22;4095;48.942;9.104;2022-11-20T01:31:45;7.50;99.90
8105;DHT22;4095;48.942;9.104;2022-11-20T01:34:13;7.50;99.90
8105;DHT22;4095;48.942;9.104;2022-11-20T01:36:40;7.50;99.90
8105;DHT22;4095;48.942;9.104;2022-11-20T01:39:15;7.60;99.90
8105;DHT22;4095;48.942;9.104;2022-11-20T01:41:41;7.50;99.90
8105;DHT22;4095;48.942;9.104;2022-11-20T01:47:26;7.50;99.90
8105;DHT22;4095;48.942;9.104;2022-11-20T01:50:02;7.50;99.90
8105;DHT22;4095;48.942;9.104;2022-11-20T01:52:53;7.60;99.90
8105;DHT22;4095;48.942;9.104;2022-11-20T01:55:31;7.50;99.90
8105;DHT22;4095;48.942;9.104;2022-11-20T01:57:57;7.60;99.90
8105;DHT22;4095;48.942;9.104;2022-11-20T02:00:24;7.60;99.90
8105;DHT22;4095;48.942;9.104;2022-11-20T02:03:03;7.60;99.90
8105;DHT22;4095;48.942;9.104;2022-11-20T02:08:16;7.60;99.90
8105;DHT22;4095;48.942;9.104;2022-11-20T02:10:42;7.70;99.90
8105;DHT22;4095;48.942;9.104;2022-11-20T02:13:08;7.70;99.90
8105;DHT22;4095;48.942;9.104;2022-11-20T02:15:52;7.70;99.90
8105;DHT22;4095;48.942;9.104;2022-11-20T02:18:19;7.70;99.90
8105;DHT22;4095;48.942;9.104;2022-11-20T02:20:48;7.70;99.90
8105;DHT22;4095;48.942;9.104;2022-11-20T02:23:39;7.80;99.90
8105;DHT22;4095;48.942;9.104;2022-11-20T02:26:11;7.80;99.90
8105;DHT22;4095;48.942;9.104;2022-11-20T02:28:38;7.80;99.90
8105;DHT22;4095;48.942;9.104;2022-11-20T02:31:04;7.80;99.90
8105;DHT22;4095;48.942;9.104;2022-11-20T02:33:29;7.80;99.90
8105;DHT22;4095;48.942;9.104;2022-11-20T02:35:55;7.80;99.90
8105;DHT22;4095;48.942;9.104;2022-11-20T02:38:20;7.80;99.90
8105;DHT22;4095;48.942;9.104;2022-11-20T02:40:46;7.90;99.90
8105;DHT22;4095;48.942;9.104;2022-11-20T02:43:12;7.90;99.90
8105;DHT22;4095;48.942;9.104;2022-11-20T02:45:38;7.90;99.90
8105;DHT22;4095;48.942;9.104;2022-11-20T02:48:05;7.90;99.90
8105;DHT22;4095;48.942;9.104;2022-11-20T02:50:31;7.90;99.90
8105;DHT22;4095;48.942;9.104;2022-11-20T02:52:56;8.00;99.90
8105;DHT22;4095;48.942;9.104;2022-11-20T02:55:22;8.00;99.90
8105;DHT22;4095;48.942;9.104;2022-11-20T02:57:48;8.10;99.90
8105;DHT22;4095;48.942;9.104;2022-11-20T03:00:14;8.10;99.90
8105;DHT22;4095;48.942;9.104;2022-11-20T03:02:39;8.10;99.90
8105;DHT22;4095;48.942;9.104;2022-11-20T03:05:05;8.10;99.90
8105;DHT22;4095;48.942;9.104;2022-11-20T03:07:31;8.10;99.90
8105;DHT22;4095;48.942;9.104;2022-11-20T03:09:56;8.10;99.90
8105;DHT22;4095;48.942;9.104;2022-11-20T03:12:22;8.10;99.90
8105;DHT22;4095;48.942;9.104;2022-11-20T03:14:47;8.00;99.90
8105;DHT22;4095;48.942;9.104;2022-11-20T03:17:13;8.10;99.90
8105;DHT22;4095;48.942;9.104;2022-11-20T03:19:39;8.10;99.90
8105;DHT22;4095;48.942;9.104;2022-11-20T03:22:04;8.10;99.90
8105;DHT22;4095;48.942;9.104;2022-11-20T03:24:30;8.10;99.90
8105;DHT22;4095;48.942;9.104;2022-11-20T03:26:55;8.10;99.90
8105;DHT22;4095;48.942;9.104;2022-11-20T03:29:21;8.00;99.90
8105;DHT22;4095;48.942;9.104;2022-11-20T03:31:47;8.00;99.90
8105;DHT22;4095;48.942;9.104;2022-11-20T03:34:12;8.00;99.90
8105;DHT22;4095;48.942;9.104;2022-11-20T03:36:39;8.00;99.90
8105;DHT22;4095;48.942;9.104;2022-11-20T03:39:05;8.00;99.90
8105;DHT22;4095;48.942;9.104;2022-11-20T03:41:36;8.10;99.90
8105;DHT22;4095;48.942;9.104;2022-11-20T03:44:04;8.10;99.90
8105;DHT22;4095;48.942;9.104;2022-11-20T03:46:30;8.10;99.90
8105;DHT22;4095;48.942;9.104;2022-11-20T03:48:56;8.10;99.90
8105;DHT22;4095;48.942;9.104;2022-11-20T03:51:24;8.10;99.90
8105;DHT22;4095;48.942;9.104;2022-11-20T03:53:51;8.00;99.90
8105;DHT22;4095;48.942;9.104;2022-11-20T03:56:20;8.00;99.90
8105;DHT22;4095;48.942;9.104;2022-11-20T03:58:47;8.00;99.90
8105;DHT22;4095;48.942;9.104;2022-11-20T04:03:41;7.90;99.90
8105;DHT22;4095;48.942;9.104;2022-11-20T04:06:11;7.90;99.90
8105;DHT22;4095;48.942;9.104;2022-11-20T04:08:38;7.90;99.90
8105;DHT22;4095;48.942;9.104;2022-11-20T04:11:13;7.90;99.90
8105;DHT22;4095;48.942;9.104;2022-11-20T04:13:40;7.90;99.90
8105;DHT22;4095;48.942;9.104;2022-11-20T04:16:08;7.90;99.90
8105;DHT22;4095;48.942;9.104;2022-11-20T04:18:33;7.90;99.90
8105;DHT22;4095;48.942;9.104;2022-11-20T04:20:59;7.80;99.90
8105;DHT22;4095;48.942;9.104;2022-11-20T04:23:25;7.80;99.90
8105;DHT22;4095;48.942;9.104;2022-11-20T04:25:51;7.80;99.90
8105;DHT22;4095;48.942;9.104;2022-11-20T04:28:17;7.80;99.90
8105;DHT22;4095;48.942;9.104;2022-11-20T04:30:43;7.80;99.90
8105;DHT22;4095;48.942;9.104;2022-11-20T04:33:09;7.90;99.90
8105;DHT22;4095;48.942;9.104;2022-11-20T04:35:35;8.00;99.90
8105;DHT22;4095;48.942;9.104;2022-11-20T04:38:01;8.00;99.90
8105;DHT22;4095;48.942;9.104;2022-11-20T04:40:28;8.00;99.90
8105;DHT22;4095;48.942;9.104;2022-11-20T04:42:54;8.00;99.90
8105;DHT22;4095;48.942;9.104;2022-11-20T04:45:22;8.00;99.90
8105;DHT22;4095;48.942;9.104;2022-11-20T04:47:48;8.10;99.90
8105;DHT22;4095;48.942;9.104;2022-11-20T04:50:13;8.10;99.90
8105;DHT22;4095;48.942;9.104;2022-11-20T04:52:39;8.10;99.90
8105;DHT22;4095;48.942;9.104;2022-11-20T04:55:05;8.10;99.90
8105;DHT22;4095;48.942;9.104;2022-11-20T04:57:31;8.10;99.90
8105;DHT22;4095;48.942;9.104;2022-11-20T04:59:56;8.10;99.90
8105;DHT22;4095;48.942;9.104;2022-11-20T05:02:22;8.10;99.90
8105;DHT22;4095;48.942;9.104;2022-11-20T05:04:48;8.10;99.90
8105;DHT22;4095;48.942;9.104;2022-11-20T05:07:14;8.10;99.90
8105;DHT22;4095;48.942;9.104;2022-11-20T05:09:39;8.10;99.90
8105;DHT22;4095;48.942;9.104;2022-11-20T05:12:07;8.20;99.90
8105;DHT22;4095;48.942;9.104;2022-11-20T05:14:33;8.20;99.90
8105;DHT22;4095;48.942;9.104;2022-11-20T05:16:59;8.20;99.90
8105;DHT22;4095;48.942;9.104;2022-11-20T05:19:24;8.20;99.90
8105;DHT22;4095;48.942;9.104;2022-11-20T05:21:50;8.10;99.90
8105;DHT22;4095;48.942;9.104;2022-11-20T05:24:16;8.00;99.90
8105;DHT22;4095;48.942;9.104;2022-11-20T05:26:41;8.00;99.90
8105;DHT22;4095;48.942;9.104;2022-11-20T05:29:10;8.10;99.90
8105;DHT22;4095;48.942;9.104;2022-11-20T05:31:36;8.00;99.90
8105;DHT22;4095;48.942;9.104;2022-11-20T05:34:03;8.00;99.90
8105;DHT22;4095;48.942;9.104;2022-11-20T05:36:30;8.00;99.90
8105;DHT22;4095;48.942;9.104;2022-11-20T05:38:55;7.90;99.90
8105;DHT22;4095;48.942;9.104;2022-11-20T05:41:21;7.90;99.90
8105;DHT22;4095;48.942;9.104;2022-11-20T05:43:47;7.90;99.90
8105;DHT22;4095;48.942;9.104;2022-11-20T05:46:15;7.80;99.90
8105;DHT22;4095;48.942;9.104;2022-11-20T05:48:42;7.80;99.90
8105;DHT22;4095;48.942;9.104;2022-11-20T05:51:12;7.80;99.90
8105;DHT22;4095;48.942;9.104;2022-11-20T05:53:37;7.80;99.90
8105;DHT22;4095;48.942;9.104;2022-11-20T05:56:09;7.80;99.90
8105;DHT22;4095;48.942;9.104;2022-11-20T05:58:36;7.80;99.90
8105;DHT22;4095;48.942;9.104;2022-11-20T06:01:09;7.80;99.90
8105;DHT22;4095;48.942;9.104;2022-11-20T06:03:35;7.90;99.90
8105;DHT22;4095;48.942;9.104;2022-11-20T06:06:01;8.00;99.90
8105;DHT22;4095;48.942;9.104;2022-11-20T06:08:27;8.00;99.90
8105;DHT22;4095;48.942;9.104;2022-11-20T06:10:53;8.00;99.90
8105;DHT22;4095;48.942;9.104;2022-11-20T06:13:18;8.10;99.90
8105;DHT22;4095;48.942;9.104;2022-11-20T06:15:53;8.10;99.90
8105;DHT22;4095;48.942;9.104;2022-11-20T06:18:19;8.20;99.90
8105;DHT22;4095;48.942;9.104;2022-11-20T06:20:45;8.20;99.90
8105;DHT22;4095;48.942;9.104;2022-11-20T06:23:12;8.20;99.90
8105;DHT22;4095;48.942;9.104;2022-11-20T06:25:42;8.30;99.90
8105;DHT22;4095;48.942;9.104;2022-11-20T06:28:08;8.20;99.90
8105;DHT22;4095;48.942;9.104;2022-11-20T06:30:34;8.30;99.90
8105;DHT22;4095;48.942;9.104;2022-11-20T06:33:00;8.30;99.90
8105;DHT22;4095;48.942;9.104;2022-11-20T06:35:26;8.30;99.90
8105;DHT22;4095;48.942;9.104;2022-11-20T06:37:51;8.20;99.90
8105;DHT22;4095;48.942;9.104;2022-11-20T06:40:17;8.30;99.90
8105;DHT22;4095;48.942;9.104;2022-11-20T06:42:42;8.30;99.90
8105;DHT22;4095;48.942;9.104;2022-11-20T06:45:09;8.30;99.90
8105;DHT22;4095;48.942;9.104;2022-11-20T06:47:34;8.30;99.90
8105;DHT22;4095;48.942;9.104;2022-11-20T06:50:00;8.30;99.90
8105;DHT22;4095;48.942;9.104;2022-11-20T06:52:26;8.30;99.90
8105;DHT22;4095;48.942;9.104;2022-11-20T06:54:51;8.30;99.90
8105;DHT22;4095;48.942;9.104;2022-11-20T06:57:17;8.30;99.90
8105;DHT22;4095;48.942;9.104;2022-11-20T06:59:42;8.30;99.90
8105;DHT22;4095;48.942;9.104;2022-11-20T07:02:11;8.30;99.90
8105;DHT22;4095;48.942;9.104;2022-11-20T07:04:37;8.30;99.90
8105;DHT22;4095;48.942;9.104;2022-11-20T07:07:03;8.30;99.90
8105;DHT22;4095;48.942;9.104;2022-11-20T07:09:29;8.30;99.90
8105;DHT22;4095;48.942;9.104;2022-11-20T07:11:54;8.40;99.90
8105;DHT22;4095;48.942;9.104;2022-11-20T07:14:20;8.40;99.90
8105;DHT22;4095;48.942;9.104;2022-11-20T07:16:46;8.50;99.90
8105;DHT22;4095;48.942;9.104;2022-11-20T07:19:11;8.50;99.90
8105;DHT22;4095;48.942;9.104;2022-11-20T07:21:37;8.60;99.90
8105;DHT22;4095;48.942;9.104;2022-11-20T07:24:02;8.60;99.90
8105;DHT22;4095;48.942;9.104;2022-11-20T07:26:28;8.60;99.90
8105;DHT22;4095;48.942;9.104;2022-11-20T07:28:54;8.70;99.90
8105;DHT22;4095;48.942;9.104;2022-11-20T07:31:19;8.70;99.90
8105;DHT22;4095;48.942;9.104;2022-11-20T07:33:45;8.70;99.90
8105;DHT22;4095;48.942;9.104;2022-11-20T07:36:11;8.70;99.90
8105;DHT22;4095;48.942;9.104;2022-11-20T07:38:37;8.70;99.90
8105;DHT22;4095;48.942;9.104;2022-11-20T07:41:03;8.80;99.90
8105;DHT22;4095;48.942;9.104;2022-11-20T07:43:29;8.80;99.90
8105;DHT22;4095;48.942;9.104;2022-11-20T07:45:56;8.70;99.90
8105;DHT22;4095;48.942;9.104;2022-11-20T07:48:22;8.70;99.90
8105;DHT22;4095;48.942;9.104;2022-11-20T07:50:47;8.70;99.90
8105;DHT22;4095;48.942;9.104;2022-11-20T07:53:13;8.70;99.90
8105;DHT22;4095;48.942;9.104;2022-11-20T07:55:39;8.70;99.90
8105;DHT22;4095;48.942;9.104;2022-11-20T07:58:05;8.70;99.90
8105;DHT22;4095;48.942;9.104;2022-11-20T08:00:31;8.70;99.90
8105;DHT22;4095;48.942;9.104;2022-11-20T08:02:56;8.80;99.90
8105;DHT22;4095;48.942;9.104;2022-11-20T08:05:22;8.80;99.90
8105;DHT22;4095;48.942;9.104;2022-11-20T08:07:48;8.80;99.90
8105;DHT22;4095;48.942;9.104;2022-11-20T08:10:15;8.90;99.90
8105;DHT22;4095;48.942;9.104;2022-11-20T08:12:49;8.90;99.90
8105;DHT22;4095;48.942;9.104;2022-11-20T08:15:35;8.90;99.90
8105;DHT22;4095;48.942;9.104;2022-11-20T08:18:07;8.90;99.90
8105;DHT22;4095;48.942;9.104;2022-11-20T08:20:33;9.00;99.90
8105;DHT22;4095;48.942;9.104;2022-11-20T08:23:00;9.00;99.90
8105;DHT22;4095;48.942;9.104;2022-11-20T08:25:27;9.00;99.90
8105;DHT22;4095;48.942;9.104;2022-11-20T08:27:53;9.00;99.90
8105;DHT22;4095;48.942;9.104;2022-11-20T08:30:19;9.00;99.90
8105;DHT22;4095;48.942;9.104;2022-11-20T08:32:45;9.00;99.90
8105;DHT22;4095;48.942;9.104;2022-11-20T08:35:10;9.00;99.90
8105;DHT22;4095;48.942;9.104;2022-11-20T08:37:36;9.00;99.90
8105;DHT22;4095;48.942;9.104;2022-11-20T08:40:04;9.00;99.90
8105;DHT22;4095;48.942;9.104;2022-11-20T08:42:29;9.10;99.90
8105;DHT22;4095;48.942;9.104;2022-11-20T08:44:55;9.00;99.90
8105;DHT22;4095;48.942;9.104;2022-11-20T08:47:21;9.00;99.90
8105;DHT22;4095;48.942;9.104;2022-11-20T08:49:46;9.00;99.90
8105;DHT22;4095;48.942;9.104;2022-11-20T08:52:12;9.00;99.90
8105;DHT22;4095;48.942;9.104;2022-11-20T08:54:37;9.00;99.90
8105;DHT22;4095;48.942;9.104;2022-11-20T08:57:03;9.00;99.90
8105;DHT22;4095;48.942;9.104;2022-11-20T08:59:28;9.10;99.90
8105;DHT22;4095;48.942;9.104;2022-11-20T09:01:56;9.10;99.90
8105;DHT22;4095;48.942;9.104;2022-11-20T09:04:21;9.20;99.90
8105;DHT22;4095;48.942;9.104;2022-11-20T09:06:47;9.20;99.90
8105;DHT22;4095;48.942;9.104;2022-11-20T09:09:16;9.20;99.90
8105;DHT22;4095;48.942;9.104;2022-11-20T09:11:42;9.10;99.90
8105;DHT22;4095;48.942;9.104;2022-11-20T09:14:08;9.10;99.90
8105;DHT22;4095;48.942;9.104;2022-11-20T09:16:33;9.10;99.90
8105;DHT22;4095;48.942;9.104;2022-11-20T09:18:59;9.10;99.90
8105;DHT22;4095;48.942;9.104;2022-11-20T09:21:25;9.10;99.90
8105;DHT22;4095;48.942;9.104;2022-11-20T09:23:50;9.10;99.90
8105;DHT22;4095;48.942;9.104;2022-11-20T09:26:16;9.10;99.90
8105;DHT22;4095;48.942;9.104;2022-11-20T09:28:41;9.00;99.90
8105;DHT22;4095;48.942;9.104;2022-11-20T09:31:09;9.10;99.90
8105;DHT22;4095;48.942;9.104;2022-11-20T09:33:37;9.10;99.90
8105;DHT22;4095;48.942;9.104;2022-11-20T09:36:02;9.10;99.90
8105;DHT22;4095;48.942;9.104;2022-11-20T09:38:28;9.10;99.90
8105;DHT22;4095;48.942;9.104;2022-11-20T09:41:04;9.10;99.90
8105;DHT22;4095;48.942;9.104;2022-11-20T09:54:19;9.30;99.90
8105;DHT22;4095;48.942;9.104;2022-11-20T09:56:59;9.30;99.90
8105;DHT22;4095;48.942;9.104;2022-11-20T09:59:50;9.40;99.90
8105;DHT22;4095;48.942;9.104;2022-11-20T10:02:29;9.30;99.90
8105;DHT22;4095;48.942;9.104;2022-11-20T10:05:53;9.30;99.90
8105;DHT22;4095;48.942;9.104;2022-11-20T10:08:24;9.30;99.90
8105;DHT22;4095;48.942;9.104;2022-11-20T10:16:35;9.40;99.90
8105;DHT22;4095;48.942;9.104;2022-11-20T10:24:43;9.30;99.90
8105;DHT22;4095;48.942;9.104;2022-11-20T10:30:02;9.30;99.90
8105;DHT22;4095;48.942;9.104;2022-11-20T10:32:38;9.30;99.90
8105;DHT22;4095;48.942;9.104;2022-11-20T10:37:31;9.30;99.90
8105;DHT22;4095;48.942;9.104;2022-11-20T10:47:55;9.30;99.90
8105;DHT22;4095;48.942;9.104;2022-11-20T10:50:22;9.30;99.90
8105;DHT22;4095;48.942;9.104;2022-11-20T10:53:10;9.30;99.90
8105;DHT22;4095;48.942;9.104;2022-11-20T10:55:45;9.30;99.90
8105;DHT22;4095;48.942;9.104;2022-11-20T11:01:17;9.30;99.90
8105;DHT22;4095;48.942;9.104;2022-11-20T11:03:43;9.40;99.90
8105;DHT22;4095;48.942;9.104;2022-11-20T11:06:29;9.40;99.90
8105;DHT22;4095;48.942;9.104;2022-11-20T11:09:02;9.40;99.90
8105;DHT22;4095;48.942;9.104;2022-11-20T11:11:32;9.40;99.90
8105;DHT22;4095;48.942;9.104;2022-11-20T11:14:27;9.40;99.90
8105;DHT22;4095;48.942;9.104;2022-11-20T11:16:57;9.50;99.90
8105;DHT22;4095;48.942;9.104;2022-11-20T11:19:23;9.60;99.90
8105;DHT22;4095;48.942;9.104;2022-11-20T11:21:54;9.60;99.90
8105;DHT22;4095;48.942;9.104;2022-11-20T11:27:04;10.20;99.90
8105;DHT22;4095;48.942;9.104;2022-11-20T11:29:35;11.60;99.90
8105;DHT22;4095;48.942;9.104;2022-11-20T11:32:12;13.50;99.90
8105;DHT22;4095;48.942;9.104;2022-11-20T11:34:39;15.10;99.90
8105;DHT22;4095;48.942;9.104;2022-11-20T11:37:10;16.30;99.90
8105;DHT22;4095;48.942;9.104;2022-11-20T11:39:41;16.90;97.80
8105;DHT22;4095;48.942;9.104;2022-11-20T11:42:16;17.30;96.70
8105;DHT22;4095;48.942;9.104;2022-11-20T11:44:47;17.30;96.60
8105;DHT22;4095;48.942;9.104;2022-11-20T11:47:46;17.40;96.10
8105;DHT22;4095;48.942;9.104;2022-11-20T11:50:17;17.50;95.20
8105;DHT22;4095;48.942;9.104;2022-11-20T11:55:47;17.30;94.60
8105;DHT22;4095;48.942;9.104;2022-11-20T12:00:51;17.30;93.30
8105;DHT22;4095;48.942;9.104;2022-11-20T12:03:30;17.10;93.20
8105;DHT22;4095;48.942;9.104;2022-11-20T12:08:43;15.00;94.60
8105;DHT22;4095;48.942;9.104;2022-11-20T12:13:52;13.60;95.90
8105;DHT22;4095;48.942;9.104;2022-11-20T12:16:19;13.00;96.80
8105;DHT22;4095;48.942;9.104;2022-11-20T12:18:49;12.70;97.80
8105;DHT22;4095;48.942;9.104;2022-11-20T12:39:50;12.00;98.60
8105;DHT22;4095;48.942;9.104;2022-11-20T12:42:40;11.90;98.30
8105;DHT22;4095;48.942;9.104;2022-11-20T12:51:11;11.70;97.60
8105;DHT22;4095;48.942;9.104;2022-11-20T12:53:58;11.50;97.70
8105;DHT22;4095;48.942;9.104;2022-11-20T12:56:43;11.40;98.00
8105;DHT22;4095;48.942;9.104;2022-11-20T13:04:39;11.50;98.40
8105;DHT22;4095;48.942;9.104;2022-11-20T13:07:10;11.60;98.40
8105;DHT22;4095;48.942;9.104;2022-11-20T13:09:42;11.60;98.20
8105;DHT22;4095;48.942;9.104;2022-11-20T13:12:15;11.60;98.10
8105;DHT22;4095;48.942;9.104;2022-11-20T13:14:52;11.60;97.80
8105;DHT22;4095;48.942;9.104;2022-11-20T13:20:05;11.60;97.90
8105;DHT22;4095;48.942;9.104;2022-11-20T13:22:51;11.60;97.80
8105;DHT22;4095;48.942;9.104;2022-11-20T13:27:55;11.40;97.50
8105;DHT22;4095;48.942;9.104;2022-11-20T13:30:23;11.40;97.70
8105;DHT22;4095;48.942;9.104;2022-11-20T13:32:54;11.20;97.90
8105;DHT22;4095;48.942;9.104;2022-11-20T13:35:36;11.10;98.00
8105;DHT22;4095;48.942;9.104;2022-11-20T13:38:11;11.10;97.90
8105;DHT22;4095;48.942;9.104;2022-11-20T13:40:59;11.10;98.50
8105;DHT22;4095;48.942;9.104;2022-11-20T13:43:47;11.20;98.70
8105;DHT22;4095;48.942;9.104;2022-11-20T13:46:13;11.40;98.40
8105;DHT22;4095;48.942;9.104;2022-11-20T13:48:45;11.40;98.20
8105;DHT22;4095;48.942;9.104;2022-11-20T13:51:29;11.30;98.50
8105;DHT22;4095;48.942;9.104;2022-11-20T14:00:07;11.20;97.90
8105;DHT22;4095;48.942;9.104;2022-11-20T14:02:36;11.20;98.10
8105;DHT22;4095;48.942;9.104;2022-11-20T14:05:02;11.10;98.70
8105;DHT22;4095;48.942;9.104;2022-11-20T14:07:37;11.00;98.40
8105;DHT22;4095;48.942;9.104;2022-11-20T14:10:04;11.00;98.60
8105;DHT22;4095;48.942;9.104;2022-11-20T14:12:31;10.90;98.00
8105;DHT22;4095;48.942;9.104;2022-11-20T14:14:58;10.80;98.00
8105;DHT22;4095;48.942;9.104;2022-11-20T14:17:33;10.80;98.10
8105;DHT22;4095;48.942;9.104;2022-11-20T14:20:05;10.70;97.90
8105;DHT22;4095;48.942;9.104;2022-11-20T14:22:31;10.70;97.60
8105;DHT22;4095;48.942;9.104;2022-11-20T14:27:39;10.60;97.80
8105;DHT22;4095;48.942;9.104;2022-11-20T14:30:13;10.60;97.90
8105;DHT22;4095;48.942;9.104;2022-11-20T14:32:41;10.60;97.80
8105;DHT22;4095;48.942;9.104;2022-11-20T14:35:09;10.60;97.80
8105;DHT22;4095;48.942;9.104;2022-11-20T14:37:38;10.60;98.00
8105;DHT22;4095;48.942;9.104;2022-11-20T14:40:26;10.50;98.20
8105;DHT22;4095;48.942;9.104;2022-11-20T14:42:52;10.50;98.00
8105;DHT22;4095;48.942;9.104;2022-11-20T14:45:18;10.40;98.40
8105;DHT22;4095;48.942;9.104;2022-11-20T14:47:45;10.40;98.40
8105;DHT22;4095;48.942;9.104;2022-11-20T14:50:22;10.30;98.20
8105;DHT22;4095;48.942;9.104;2022-11-20T14:52:57;10.20;98.50
8105;DHT22;4095;48.942;9.104;2022-11-20T14:55:38;10.30;98.90
8105;DHT22;4095;48.942;9.104;2022-11-20T14:58:27;10.20;98.70
8105;DHT22;4095;48.942;9.104;2022-11-20T15:01:03;10.10;98.40
8105;DHT22;4095;48.942;9.104;2022-11-20T15:03:38;10.10;98.50
8105;DHT22;4095;48.942;9.104;2022-11-20T15:06:10;10.10;98.50
8105;DHT22;4095;48.942;9.104;2022-11-20T15:08:36;10.00;98.50
8105;DHT22;4095;48.942;9.104;2022-11-20T15:11:02;10.00;98.70
8105;DHT22;4095;48.942;9.104;2022-11-20T15:13:33;10.00;98.80
8105;DHT22;4095;48.942;9.104;2022-11-20T15:16:01;9.90;99.20
8105;DHT22;4095;48.942;9.104;2022-11-20T15:18:30;9.90;99.20
8105;DHT22;4095;48.942;9.104;2022-11-20T15:20:58;9.80;99.20
8105;DHT22;4095;48.942;9.104;2022-11-20T15:23:26;9.80;99.30
8105;DHT22;4095;48.942;9.104;2022-11-20T15:25:52;9.80;99.40
8105;DHT22;4095;48.942;9.104;2022-11-20T15:30:46;9.80;99.70
8105;DHT22;4095;48.942;9.104;2022-11-20T15:33:12;9.80;99.60
8105;DHT22;4095;48.942;9.104;2022-11-20T15:35:38;9.70;99.30
8105;DHT22;4095;48.942;9.104;2022-11-20T15:38:04;9.60;99.50
8105;DHT22;4095;48.942;9.104;2022-11-20T15:40:30;9.60;99.70
8105;DHT22;4095;48.942;9.104;2022-11-20T15:42:56;9.60;99.80
8105;DHT22;4095;48.942;9.104;2022-11-20T15:45:45;9.60;99.90
8105;DHT22;4095;48.942;9.104;2022-11-20T15:48:23;9.60;99.80
8105;DHT22;4095;48.942;9.104;2022-11-20T15:53:18;9.50;99.30
8105;DHT22;4095;48.942;9.104;2022-11-20T15:55:44;9.50;99.20
8105;DHT22;4095;48.942;9.104;2022-11-20T15:58:09;9.50;99.00
8105;DHT22;4095;48.942;9.104;2022-11-20T16:00:35;9.50;99.20
8105;DHT22;4095;48.942;9.104;2022-11-20T16:03:01;9.40;99.50
8105;DHT22;4095;48.942;9.104;2022-11-20T16:05:31;9.40;99.80
8105;DHT22;4095;48.942;9.104;2022-11-20T16:07:56;9.40;99.90
8105;DHT22;4095;48.942;9.104;2022-11-20T16:10:23;9.30;99.90
8105;DHT22;4095;48.942;9.104;2022-11-20T16:12:49;9.40;99.90
8105;DHT22;4095;48.942;9.104;2022-11-20T16:15:33;9.40;99.90
8105;DHT22;4095;48.942;9.104;2022-11-20T16:18:13;9.40;99.90
8105;DHT22;4095;48.942;9.104;2022-11-20T16:20:39;9.30;99.90
8105;DHT22;4095;48.942;9.104;2022-11-20T16:23:05;9.30;99.90
8105;DHT22;4095;48.942;9.104;2022-11-20T16:25:32;9.30;99.90
8105;DHT22;4095;48.942;9.104;2022-11-20T16:27:58;9.30;99.90
8105;DHT22;4095;48.942;9.104;2022-11-20T16:30:23;9.20;99.90
8105;DHT22;4095;48.942;9.104;2022-11-20T16:32:49;9.20;99.90
8105;DHT22;4095;48.942;9.104;2022-11-20T16:35:15;9.10;99.90
8105;DHT22;4095;48.942;9.104;2022-11-20T16:37:40;9.10;99.90
8105;DHT22;4095;48.942;9.104;2022-11-20T16:40:07;9.00;99.90
8105;DHT22;4095;48.942;9.104;2022-11-20T16:42:34;9.10;99.90
8105;DHT22;4095;48.942;9.104;2022-11-20T16:45:00;9.10;99.90
8105;DHT22;4095;48.942;9.104;2022-11-20T16:47:26;9.00;99.90
8105;DHT22;4095;48.942;9.104;2022-11-20T16:49:51;9.00;99.90
8105;DHT22;4095;48.942;9.104;2022-11-20T16:52:17;9.00;99.90
8105;DHT22;4095;48.942;9.104;2022-11-20T16:54:43;9.00;99.90
8105;DHT22;4095;48.942;9.104;2022-11-20T16:57:08;9.00;99.90
8105;DHT22;4095;48.942;9.104;2022-11-20T16:59:34;8.90;99.90
8105;DHT22;4095;48.942;9.104;2022-11-20T17:01:59;8.90;99.90
8105;DHT22;4095;48.942;9.104;2022-11-20T17:04:25;8.90;99.90
8105;DHT22;4095;48.942;9.104;2022-11-20T17:06:51;8.90;99.90
8105;DHT22;4095;48.942;9.104;2022-11-20T17:09:16;8.90;99.90
8105;DHT22;4095;48.942;9.104;2022-11-20T17:11:42;8.90;99.90
8105;DHT22;4095;48.942;9.104;2022-11-20T17:14:10;8.90;99.90
8105;DHT22;4095;48.942;9.104;2022-11-20T17:16:36;8.90;99.90
8105;DHT22;4095;48.942;9.104;2022-11-20T17:19:03;8.80;99.90
8105;DHT22;4095;48.942;9.104;2022-11-20T17:21:33;8.90;99.90
8105;DHT22;4095;48.942;9.104;2022-11-20T17:24:04;8.90;99.90
8105;DHT22;4095;48.942;9.104;2022-11-20T17:26:30;8.80;99.90
8105;DHT22;4095;48.942;9.104;2022-11-20T17:29:00;8.80;99.90
8105;DHT22;4095;48.942;9.104;2022-11-20T17:31:27;8.90;99.90
8105;DHT22;4095;48.942;9.104;2022-11-20T17:33:53;8.90;99.90
8105;DHT22;4095;48.942;9.104;2022-11-20T17:36:19;8.90;99.90
8105;DHT22;4095;48.942;9.104;2022-11-20T17:38:46;8.90;99.90
8105;DHT22;4095;48.942;9.104;2022-11-20T17:41:13;9.00;99.90
8105;DHT22;4095;48.942;9.104;2022-11-20T17:43:40;9.00;99.90
8105;DHT22;4095;48.942;9.104;2022-11-20T17:48:34;9.00;99.90
8105;DHT22;4095;48.942;9.104;2022-11-20T17:51:01;9.00;99.90
8105;DHT22;4095;48.942;9.104;2022-11-20T17:53:28;9.00;99.90
8105;DHT22;4095;48.942;9.104;2022-11-20T17:55:57;9.10;99.90
8105;DHT22;4095;48.942;9.104;2022-11-20T17:58:41;9.10;99.90
8105;DHT22;4095;48.942;9.104;2022-11-20T18:01:08;9.10;99.90
8105;DHT22;4095;48.942;9.104;2022-11-20T18:03:34;9.10;99.90
8105;DHT22;4095;48.942;9.104;2022-11-20T18:08:38;9.10;99.90
8105;DHT22;4095;48.942;9.104;2022-11-20T18:11:18;9.20;99.90
8105;DHT22;4095;48.942;9.104;2022-11-20T18:13:45;9.10;99.90
8105;DHT22;4095;48.942;9.104;2022-11-20T18:16:31;9.10;99.90
8105;DHT22;4095;48.942;9.104;2022-11-20T18:18:58;9.20;99.90